Time;durP1;ratioP1;P1;durP2;ratioP2;P2;SDS_P1;SDS_P2;PMS_P1;PMS_P2;Temp;Humidity;BMP_temperature;BMP_pressure;BME280_temperature;BME280_humidity;BME280_pressure;Samples;Min_cycle;Max_cycle;Signal;HPM_P1;HPM_P2
2022/01/29 00:01:13;;;;;;;26.33;16.92;;;15.00;48.80;14.10;102338.00;;;;5044731;28;20487;-70
2022/01/29 00:03:59;;;;;;;22.80;15.95;;;15.00;48.80;14.10;102332.00;;;;5068105;28;20543;-70
2022/01/29 00:06:45;;;;;;;28.50;16.75;;;15.00;48.80;14.10;102331.00;;;;5063197;28;20051;-70
2022/01/29 00:09:31;;;;;;;26.02;16.52;;;15.00;48.90;14.10;102324.00;;;;5045013;28;20114;-70
2022/01/29 00:12:17;;;;;;;27.13;16.92;;;15.00;48.90;14.10;102308.00;;;;5062398;28;20044;-70
2022/01/29 00:15:04;;;;;;;25.30;16.20;;;14.90;48.90;14.10;102303.00;;;;5060928;28;20090;-70
2022/01/29 00:17:50;;;;;;;27.77;17.25;;;14.90;48.90;14.10;102285.00;;;;5054871;28;20098;-70
2022/01/29 00:20:36;;;;;;;29.30;17.75;;;14.90;49.00;14.00;102278.00;;;;5065608;28;20417;-70
2022/01/29 00:23:22;;;;;;;27.38;16.85;;;14.90;49.00;14.00;102260.00;;;;5047877;28;20033;-70
2022/01/29 00:26:08;;;;;;;27.17;17.15;;;14.90;49.00;14.00;102263.00;;;;5065801;28;20044;-70
2022/01/29 00:28:56;;;;;;;27.00;16.95;;;14.90;49.00;14.00;102257.00;;;;5064842;28;20029;-70
2022/01/29 00:31:42;;;;;;;25.80;15.93;;;14.90;49.10;14.00;102254.00;;;;5059239;28;20071;-70
2022/01/29 00:34:28;;;;;;;27.42;16.60;;;14.90;49.10;14.00;102262.00;;;;5050236;28;20154;-70
2022/01/29 00:37:14;;;;;;;24.60;15.80;;;14.90;49.10;14.00;102270.00;;;;5065223;28;20043;-70
2022/01/29 00:40:01;;;;;;;25.30;16.90;;;14.80;49.10;14.00;102266.00;;;;5063244;28;20040;-70
2022/01/29 00:42:48;;;;;;;23.42;15.93;;;14.90;49.20;14.00;102259.00;;;;5065335;28;20033;-70
2022/01/29 00:45:34;;;;;;;28.50;16.60;;;14.90;49.20;14.00;102246.00;;;;5051130;28;20048;-71
2022/01/29 00:48:20;;;;;;;24.15;15.45;;;14.80;49.10;14.00;102258.00;;;;5064553;28;20085;-70
2022/01/29 00:51:06;;;;;;;23.50;15.20;;;14.80;49.20;14.00;102263.00;;;;5065534;28;20512;-70
2022/01/29 00:53:52;;;;;;;23.60;15.57;;;14.80;49.20;13.90;102257.00;;;;5051043;28;20044;-70
2022/01/29 00:56:39;;;;;;;26.48;16.88;;;14.80;49.20;13.90;102252.00;;;;5047476;28;20397;-70
2022/01/29 00:59:25;;;;;;;26.07;15.90;;;14.80;49.30;13.90;102235.00;;;;5064942;28;20044;-70
2022/01/29 01:02:11;;;;;;;28.83;16.67;;;14.80;49.30;13.90;102231.00;;;;5064985;28;20497;-70
2022/01/29 01:04:57;;;;;;;25.52;15.90;;;14.80;49.30;13.90;102234.00;;;;5062307;28;20640;-70
2022/01/29 01:07:44;;;;;;;25.02;16.30;;;14.80;49.30;13.90;102233.00;;;;5064403;28;20078;-70
2022/01/29 01:10:30;;;;;;;25.38;15.65;;;14.80;49.30;13.90;102222.00;;;;5061822;28;20063;-70
2022/01/29 01:13:16;;;;;;;23.25;15.68;;;14.80;49.40;13.90;102214.00;;;;5063856;28;20094;-70
2022/01/29 01:16:04;;;;;;;24.63;15.35;;;14.80;49.40;13.90;102191.00;;;;5060138;28;20059;-70
2022/01/29 01:18:50;;;;;;;25.15;15.80;;;14.80;49.40;13.90;102189.00;;;;5050613;28;20116;-70
2022/01/29 01:21:36;;;;;;;27.95;15.93;;;14.50;49.20;13.90;102174.00;;;;5062076;28;20033;-70
2022/01/29 01:24:23;;;;;;;29.73;16.13;;;14.80;49.40;13.90;102166.00;;;;5064232;28;20226;-70
2022/01/29 01:27:09;;;;;;;23.98;15.57;;;14.80;49.50;13.90;102157.00;;;;5057571;28;20099;-70
2022/01/29 01:29:55;;;;;;;25.08;15.88;;;14.70;49.40;13.90;102152.00;;;;5062617;28;20048;-70
2022/01/29 01:32:41;;;;;;;24.75;15.57;;;14.70;49.40;13.90;102157.00;;;;5062081;28;20116;-70
2022/01/29 01:35:36;;;;;;;24.80;15.27;;;14.70;49.50;13.90;102147.00;;;;5064638;28;20075;-70
2022/01/29 01:38:35;;;;;;;28.17;16.88;;;14.80;49.50;13.90;102138.00;;;;5050922;28;20033;-70
2022/01/29 01:41:24;;;;;;;27.33;15.32;;;14.70;49.50;13.90;102152.00;;;;5049216;28;20040;-70
2022/01/29 01:44:12;;;;;;;24.42;15.02;;;14.70;49.50;13.90;102139.00;;;;5068272;28;20040;-70
2022/01/29 01:46:58;;;;;;;23.80;13.85;;;14.70;49.60;13.90;102146.00;;;;5058722;28;20050;-70
2022/01/29 01:49:45;;;;;;;20.10;14.43;;;14.70;49.60;13.80;102139.00;;;;5064532;28;20124;-70
2022/01/29 01:52:31;;;;;;;22.25;14.88;;;14.70;49.60;13.80;102141.00;;;;5055346;28;20056;-70
2022/01/29 01:55:17;;;;;;;22.90;14.98;;;14.70;49.70;13.80;102136.00;;;;5060169;28;20385;-70
2022/01/29 01:58:03;;;;;;;25.70;15.50;;;14.70;49.70;13.80;102142.00;;;;5058363;28;20043;-70
2022/01/29 02:00:49;;;;;;;25.80;15.77;;;14.70;49.70;13.80;102133.00;;;;5064768;28;20037;-70
2022/01/29 02:03:35;;;;;;;23.42;15.43;;;14.70;49.80;13.80;102131.00;;;;5050116;28;20056;-70
2022/01/29 02:06:22;;;;;;;24.73;16.17;;;14.70;49.90;13.80;102130.00;;;;5045841;28;20405;-70
2022/01/29 02:09:08;;;;;;;25.73;15.63;;;14.70;49.90;13.80;102134.00;;;;5044725;28;20040;-70
2022/01/29 02:11:56;;;;;;;24.23;14.90;;;14.70;49.90;13.80;102130.00;;;;5061087;28;20041;-70
2022/01/29 02:14:45;;;;;;;26.23;15.45;;;14.60;49.90;13.80;102141.00;;;;5050185;28;20056;-70
2022/01/29 02:17:31;;;;;;;26.25;15.25;;;14.70;50.00;13.80;102121.00;;;;5065832;28;20074;-70
2022/01/29 02:20:19;;;;;;;24.73;14.75;;;14.70;50.20;13.80;102118.00;;;;5064462;28;20059;-70
2022/01/29 02:23:05;;;;;;;26.02;15.07;;;14.70;50.20;13.80;102094.00;;;;5064580;28;20029;-70
2022/01/29 02:25:52;;;;;;;22.90;14.43;;;14.60;50.10;13.80;102088.00;;;;5066493;28;20076;-70
2022/01/29 02:28:38;;;;;;;26.10;15.68;;;14.60;50.30;13.80;102066.00;;;;5069390;28;20059;-70
2022/01/29 02:31:24;;;;;;;25.33;14.90;;;14.60;50.30;13.80;102077.00;;;;5064352;28;20040;-70
2022/01/29 02:34:10;;;;;;;26.10;14.65;;;14.60;50.40;13.80;102065.00;;;;5050486;28;20040;-70
2022/01/29 02:36:56;;;;;;;27.05;14.85;;;14.60;50.40;13.80;102061.00;;;;5063777;28;20111;-70
2022/01/29 02:39:42;;;;;;;24.67;14.75;;;14.60;50.40;13.80;102058.00;;;;5068786;28;20087;-70
2022/01/29 02:42:28;;;;;;;22.75;14.32;;;14.60;50.50;13.80;102053.00;;;;5067623;28;20043;-70
2022/01/29 02:45:14;;;;;;;20.00;13.32;;;14.60;50.60;13.80;102059.00;;;;5063854;28;20135;-70
2022/01/29 02:48:00;;;;;;;20.85;13.90;;;14.60;51.30;13.80;102054.00;;;;5052774;28;20119;-70
2022/01/29 02:50:46;;;;;;;21.23;13.38;;;14.60;50.80;13.80;102025.00;;;;5066097;28;20558;-70
2022/01/29 02:53:33;;;;;;;19.90;13.63;;;14.60;50.70;13.80;102029.00;;;;5065549;28;20071;-70
2022/01/29 02:56:19;;;;;;;24.00;13.60;;;14.60;50.80;13.70;102023.00;;;;5062848;28;20029;-70
2022/01/29 02:59:05;;;;;;;23.08;13.20;;;14.60;50.80;13.80;102008.00;;;;5060979;28;20032;-70
2022/01/29 03:01:51;;;;;;;20.73;12.40;;;14.60;50.90;13.70;102007.00;;;;5060742;28;20488;-70
2022/01/29 03:04:37;;;;;;;20.95;12.98;;;14.60;50.80;13.70;102015.00;;;;5069024;28;20033;-70
2022/01/29 03:07:24;;;;;;;19.90;13.02;;;14.60;51.70;13.70;102016.00;;;;5060353;28;20429;-70
2022/01/29 03:10:10;;;;;;;20.60;13.00;;;14.60;51.00;13.70;102029.00;;;;5063950;28;20455;-70
2022/01/29 03:12:56;;;;;;;20.15;13.10;;;14.60;51.00;13.70;102018.00;;;;5064334;28;20045;-70
2022/01/29 03:15:42;;;;;;;19.52;12.35;;;14.60;51.10;13.70;102017.00;;;;5066576;28;20441;-70
2022/01/29 03:18:28;;;;;;;19.98;12.13;;;14.60;51.10;13.70;102004.00;;;;5063816;28;20397;-70
2022/01/29 03:21:14;;;;;;;22.02;13.80;;;14.60;51.10;13.70;101990.00;;;;5057776;28;20033;-70
2022/01/29 03:24:00;;;;;;;22.10;13.70;;;14.60;51.10;13.70;102005.00;;;;5045555;28;20036;-71
2022/01/29 03:26:46;;;;;;;20.52;12.52;;;14.60;51.20;13.70;101985.00;;;;5064402;28;20071;-70
2022/01/29 03:29:35;;;;;;;18.55;12.13;;;14.60;51.30;13.70;101995.00;;;;5069888;28;20122;-70
2022/01/29 03:32:21;;;;;;;22.52;12.98;;;14.60;51.30;13.70;101980.00;;;;5066354;28;20177;-70
2022/01/29 03:35:08;;;;;;;19.65;12.35;;;14.60;51.30;13.70;101989.00;;;;5064229;28;20040;-70
2022/01/29 03:37:57;;;;;;;18.52;11.90;;;14.60;51.40;13.70;101991.00;;;;5064453;28;20512;-70
2022/01/29 03:40:45;;;;;;;16.92;11.40;;;14.60;51.40;13.70;102001.00;;;;5050945;28;20040;-70
2022/01/29 03:43:35;;;;;;;20.92;12.90;;;14.60;51.40;13.70;101986.00;;;;5054135;28;20078;-70
2022/01/29 03:46:21;;;;;;;15.82;11.20;;;14.70;51.50;13.70;101996.00;;;;5052440;28;20444;-70
2022/01/29 03:49:07;;;;;;;17.60;10.90;;;14.60;51.50;13.70;101983.00;;;;5061523;28;20066;-70
2022/01/29 03:51:53;;;;;;;17.63;11.52;;;14.60;51.60;13.70;101978.00;;;;5055493;28;20405;-70
2022/01/29 03:54:40;;;;;;;18.45;11.77;;;14.60;51.60;13.70;101972.00;;;;5063467;28;20040;-70
2022/01/29 03:57:26;;;;;;;17.67;11.75;;;14.70;51.70;13.70;101980.00;;;;5060113;28;20033;-70
2022/01/29 04:00:12;;;;;;;16.33;11.32;;;14.60;51.70;13.70;101970.00;;;;5062173;28;20544;-70
2022/01/29 04:02:58;;;;;;;18.52;12.25;;;14.60;51.70;13.70;101969.00;;;;5051676;28;20037;-70
2022/01/29 04:05:44;;;;;;;17.15;11.63;;;14.60;51.70;13.70;101969.00;;;;5063884;28;20041;-70
2022/01/29 04:08:33;;;;;;;15.95;11.18;;;14.60;51.80;13.70;101952.00;;;;5067740;28;20063;-70
2022/01/29 04:11:21;;;;;;;17.55;10.95;;;14.60;51.80;13.80;101960.00;;;;5057473;28;20048;-70
2022/01/29 04:14:18;;;;;;;17.17;11.25;;;14.60;51.80;13.80;101966.00;;;;5034873;28;20064;-70
2022/01/29 04:17:05;;;;;;;18.63;10.57;;;14.60;51.90;13.70;101961.00;;;;5050085;28;20056;-70
2022/01/29 04:19:51;;;;;;;14.70;10.18;;;14.60;51.90;13.80;101962.00;;;;5048870;28;20043;-70
2022/01/29 04:22:37;;;;;;;14.20;9.32;;;14.60;51.90;13.80;101963.00;;;;5066316;28;20028;-70
2022/01/29 04:25:24;;;;;;;12.95;9.55;;;14.60;52.00;13.70;101943.00;;;;5051483;28;20045;-70
2022/01/29 04:28:12;;;;;;;14.85;10.25;;;14.60;52.00;13.80;101956.00;;;;5066572;28;20041;-70
2022/01/29 04:31:02;;;;;;;;;;;14.60;52.10;13.70;101945.00;;;;5068448;28;20040;-70
2022/01/29 04:33:49;;;;;;;11.23;8.38;;;14.60;51.70;13.70;101947.00;;;;5062684;28;19942;-70
2022/01/29 04:36:35;;;;;;;12.77;8.77;;;14.70;51.90;13.70;101942.00;;;;5062750;28;20041;-70
2022/01/29 04:39:21;;;;;;;11.75;8.32;;;14.60;52.00;13.70;101926.00;;;;5051909;28;20432;-70
2022/01/29 04:42:07;;;;;;;14.02;8.45;;;14.60;52.00;13.70;101930.00;;;;5048608;28;20039;-70
2022/01/29 04:44:53;;;;;;;11.35;8.20;;;14.60;52.10;13.70;101915.00;;;;5065488;28;20071;-70
2022/01/29 04:47:39;;;;;;;9.68;7.47;;;14.60;52.90;13.70;101907.00;;;;5065800;28;20048;-70
2022/01/29 04:50:25;;;;;;;10.38;7.57;;;14.60;52.20;13.80;101898.00;;;;5060938;28;20591;-70
2022/01/29 04:53:11;;;;;;;11.48;8.30;;;14.60;52.20;13.70;101908.00;;;;5044694;28;20187;-70
2022/01/29 04:55:57;;;;;;;10.77;7.60;;;14.60;52.20;13.70;101899.00;;;;5060837;28;20032;-70
2022/01/29 04:58:43;;;;;;;11.38;8.23;;;14.60;52.20;13.70;101909.00;;;;5063377;28;20029;-70
2022/01/29 05:01:30;;;;;;;9.88;7.70;;;14.60;52.30;13.70;101900.00;;;;5051156;28;20442;-70
2022/01/29 05:04:16;;;;;;;11.77;7.80;;;14.60;52.30;13.70;101916.00;;;;5066241;28;20083;-70
2022/01/29 05:07:02;;;;;;;10.20;7.47;;;14.60;52.30;13.80;101901.00;;;;5060311;28;20048;-70
2022/01/29 05:09:48;;;;;;;11.48;8.00;;;14.60;52.40;13.70;101905.00;;;;5066101;28;20126;-70
2022/01/29 05:13:00;;;;;;;11.35;7.95;;;14.60;52.30;13.80;101909.00;;;;5065394;28;20037;-70
2022/01/29 05:16:04;;;;;;;10.02;7.80;;;14.60;52.40;13.80;101901.00;;;;5062855;28;20041;-70
2022/01/29 05:28:06;;;;;;;12.50;8.13;;;14.60;52.50;13.80;101880.00;;;;5065398;28;20309;-70
2022/01/29 05:30:52;;;;;;;10.75;7.70;;;14.60;52.40;13.80;101875.00;;;;5064242;28;20056;-70
2022/01/29 05:33:38;;;;;;;9.57;7.55;;;14.60;52.50;13.80;101879.00;;;;5066985;28;20040;-70
2022/01/29 05:36:24;;;;;;;9.13;7.32;;;14.60;52.60;13.80;101883.00;;;;5049594;28;20581;-70
2022/01/29 05:39:10;;;;;;;10.13;7.85;;;14.60;52.60;13.80;101885.00;;;;5045021;28;20638;-70
2022/01/29 05:41:58;;;;;;;11.25;8.13;;;14.60;52.70;13.80;101883.00;;;;5066558;28;20033;-70
2022/01/29 05:44:44;;;;;;;;;;;14.60;52.70;13.80;101870.00;;;;5064089;28;20470;-70
2022/01/29 05:47:30;;;;;;;9.98;7.32;;;14.70;52.40;13.80;101869.00;;;;5061570;28;20346;-70
2022/01/29 05:50:16;;;;;;;11.25;7.90;;;14.60;52.50;13.80;101874.00;;;;5059936;28;20036;-70
2022/01/29 05:53:02;;;;;;;10.32;7.60;;;14.60;52.50;13.80;101863.00;;;;5067687;28;20036;-70
2022/01/29 05:55:48;;;;;;;10.48;7.57;;;14.70;52.70;13.80;101850.00;;;;5067610;28;20044;-70
2022/01/29 05:58:34;;;;;;;11.23;7.32;;;14.60;52.60;13.80;101842.00;;;;5069527;28;20036;-70
2022/01/29 06:01:21;;;;;;;11.48;7.80;;;14.70;52.70;13.80;101840.00;;;;5032848;28;20044;-70
2022/01/29 06:04:07;;;;;;;11.05;7.35;;;14.70;52.70;13.80;101844.00;;;;5046153;28;20121;-70
2022/01/29 06:06:53;;;;;;;11.52;7.55;;;14.70;52.70;13.90;101835.00;;;;5054145;28;20044;-70
2022/01/29 06:09:39;;;;;;;11.82;7.90;;;14.80;52.90;13.90;101839.00;;;;5063591;28;20345;-70
2022/01/29 06:12:25;;;;;;;11.07;7.78;;;14.90;52.90;13.90;101840.00;;;;5051539;28;20120;-70
2022/01/29 06:15:11;;;;;;;10.73;7.40;;;14.70;52.90;13.90;101835.00;;;;5066477;28;20041;-70
2022/01/29 06:17:58;;;;;;;13.18;8.48;;;14.70;52.90;13.90;101833.00;;;;5067183;28;20040;-70
2022/01/29 06:20:46;;;;;;;11.87;8.37;;;14.70;52.90;13.90;101837.00;;;;5068013;28;20125;-70
2022/01/29 06:23:34;;;;;;;10.80;8.00;;;14.70;53.00;13.90;101841.00;;;;5044884;28;20750;-70
2022/01/29 06:26:20;;;;;;;;;;;14.70;52.90;13.90;101835.00;;;;5065238;28;20067;-70
2022/01/29 06:29:06;;;;;;;12.00;8.45;;;14.80;52.70;13.90;101840.00;;;;5068807;28;19916;-70
2022/01/29 06:31:52;;;;;;;13.45;9.55;;;14.70;52.80;13.90;101842.00;;;;5066566;28;20086;-70
2022/01/29 06:34:38;;;;;;;12.98;8.80;;;14.80;53.00;13.90;101845.00;;;;5062639;28;20048;-70
2022/01/29 06:37:24;;;;;;;13.05;8.70;;;14.70;53.10;13.90;101832.00;;;;5065438;28;20559;-70
2022/01/29 06:40:11;;;;;;;12.48;8.77;;;14.70;53.00;13.90;101845.00;;;;5069048;28;20028;-70
2022/01/29 06:42:57;;;;;;;14.82;9.20;;;14.70;53.00;13.90;101840.00;;;;5050728;28;20578;-70
2022/01/29 06:45:44;;;;;;;14.95;10.07;;;14.80;53.20;13.90;101836.00;;;;5066002;28;20044;-70
2022/01/29 06:48:30;;;;;;;14.45;9.43;;;14.80;53.30;13.90;101843.00;;;;5071527;28;20040;-70
2022/01/29 06:51:17;;;;;;;14.48;10.15;;;14.80;53.20;13.90;101829.00;;;;5064801;28;20117;-70
2022/01/29 06:54:03;;;;;;;15.32;10.93;;;14.80;53.30;13.90;101827.00;;;;5060802;28;20047;-70
2022/01/29 06:56:49;;;;;;;15.30;9.75;;;14.80;53.40;13.90;101829.00;;;;5065340;28;20041;-70
2022/01/29 06:59:35;;;;;;;14.35;10.25;;;14.80;53.30;13.90;101826.00;;;;5064159;28;20036;-70
2022/01/29 07:02:21;;;;;;;16.08;10.30;;;14.80;53.40;13.90;101821.00;;;;5063447;28;20044;-70
2022/01/29 07:05:10;;;;;;;15.70;10.70;;;14.80;53.60;13.90;101813.00;;;;5066063;28;20040;-70
2022/01/29 07:07:56;;;;;;;19.45;11.68;;;14.80;53.70;13.90;101812.00;;;;5040553;28;20048;-70
2022/01/29 07:10:44;;;;;;;19.65;11.50;;;14.80;53.70;13.90;101806.00;;;;5066797;28;20422;-70
2022/01/29 07:13:31;;;;;;;19.10;12.68;;;14.80;53.80;13.90;101810.00;;;;5069548;28;20032;-70
2022/01/29 07:16:17;;;;;;;20.35;12.73;;;14.80;53.80;13.90;101808.00;;;;5067274;28;20032;-70
2022/01/29 07:19:03;;;;;;;16.63;11.68;;;14.80;53.90;13.90;101807.00;;;;5062704;28;20048;-70
2022/01/29 07:21:49;;;;;;;18.35;12.02;;;14.80;53.90;13.90;101791.00;;;;5050885;28;20052;-70
2022/01/29 07:24:35;;;;;;;18.58;11.90;;;14.80;54.00;13.90;101795.00;;;;5066490;28;20105;-70
2022/01/29 07:27:22;;;;;;;17.33;11.25;;;14.80;54.10;13.90;101789.00;;;;5041557;28;20110;-70
2022/01/29 07:30:08;;;;;;;16.48;11.43;;;14.80;54.10;13.90;101796.00;;;;5068143;28;20044;-70
2022/01/29 07:32:55;;;;;;;17.20;11.82;;;14.80;54.10;13.90;101780.00;;;;5066413;28;20129;-70
2022/01/29 07:35:41;;;;;;;17.27;11.32;;;14.80;54.20;13.90;101782.00;;;;5062632;28;20041;-70
2022/01/29 07:38:27;;;;;;;19.65;11.48;;;14.80;54.20;13.90;101789.00;;;;5064819;28;20037;-70
2022/01/29 07:41:13;;;;;;;17.17;11.48;;;14.80;54.30;13.90;101792.00;;;;5064731;28;20040;-70
2022/01/29 07:44:02;;;;;;;17.33;12.13;;;14.80;54.30;13.90;101776.00;;;;5046119;28;20352;-70
2022/01/29 07:46:48;;;;;;;17.60;12.18;;;14.80;55.10;13.90;101766.00;;;;5070273;28;20053;-70
2022/01/29 07:49:34;;;;;;;18.05;11.77;;;14.80;54.40;13.90;101752.00;;;;5065738;28;20047;-70
2022/01/29 07:52:20;;;;;;;19.90;12.18;;;14.80;54.40;13.90;101751.00;;;;5056678;28;20472;-70
2022/01/29 07:55:07;;;;;;;17.92;12.00;;;14.80;54.40;13.90;101746.00;;;;5040620;28;20075;-70
2022/01/29 07:57:53;;;;;;;16.70;12.07;;;14.80;54.50;13.90;101743.00;;;;5055401;28;20508;-70
2022/01/29 08:00:39;;;;;;;16.90;11.27;;;14.80;54.50;13.90;101746.00;;;;5063909;28;20028;-70
2022/01/29 08:03:25;;;;;;;17.95;12.02;;;14.80;54.60;13.90;101742.00;;;;5049642;28;20032;-70
2022/01/29 08:06:12;;;;;;;17.60;11.68;;;14.80;54.70;13.90;101743.00;;;;5062546;28;20482;-70
2022/01/29 08:08:58;;;;;;;17.02;11.25;;;14.80;54.70;13.90;101738.00;;;;5048241;28;20040;-70
2022/01/29 08:11:44;;;;;;;15.45;10.73;;;14.80;54.80;13.90;101735.00;;;;5057860;28;20045;-70
2022/01/29 08:14:30;;;;;;;15.55;11.00;;;14.80;54.80;13.90;101740.00;;;;5060475;28;20044;-70
2022/01/29 08:17:16;;;;;;;14.25;10.63;;;14.80;54.90;13.90;101737.00;;;;5065787;28;20049;-70
2022/01/29 08:20:02;;;;;;;16.30;10.77;;;14.80;54.90;13.90;101729.00;;;;5047225;28;20052;-70
2022/01/29 08:22:49;;;;;;;15.10;10.10;;;14.80;54.90;13.90;101724.00;;;;5059785;28;20037;-70
2022/01/29 08:25:37;;;;;;;15.45;10.77;;;14.80;55.00;13.90;101719.00;;;;5058714;28;20478;-70
2022/01/29 08:28:24;;;;;;;14.60;10.30;;;14.80;55.00;14.00;101730.00;;;;5035058;28;20037;-70
2022/01/29 08:31:10;;;;;;;14.15;9.65;;;14.80;55.00;14.00;101719.00;;;;5048329;28;20402;-70
2022/01/29 08:33:56;;;;;;;13.52;9.52;;;14.80;55.00;14.00;101724.00;;;;5039767;28;20131;-70
2022/01/29 08:36:42;;;;;;;15.27;10.15;;;14.90;55.00;13.90;101707.00;;;;5056777;28;20068;-70
2022/01/29 08:39:28;;;;;;;12.13;8.65;;;14.80;55.00;14.00;101708.00;;;;5057126;28;20409;-70
2022/01/29 08:42:14;;;;;;;12.63;9.15;;;14.80;55.00;14.00;101698.00;;;;5059383;28;20043;-71
2022/01/29 08:45:01;;;;;;;10.77;8.25;;;14.90;55.10;14.00;101697.00;;;;5061105;28;20469;-74
2022/01/29 08:47:47;;;;;;;11.33;8.63;;;14.90;55.20;14.00;101687.00;;;;5045167;28;20124;-73
2022/01/29 08:50:33;;;;;;;11.38;8.73;;;14.90;55.20;14.00;101684.00;;;;5060892;28;20418;-74
2022/01/29 08:53:19;;;;;;;11.85;8.23;;;14.90;55.20;14.00;101693.00;;;;5066593;28;20513;-73
2022/01/29 08:56:06;;;;;;;12.18;8.45;;;14.80;55.20;14.00;101698.00;;;;5058239;28;20044;-73
2022/01/29 08:58:52;;;;;;;10.57;7.47;;;14.90;55.30;14.00;101697.00;;;;5062752;28;20119;-73
2022/01/29 09:01:38;;;;;;;9.57;7.32;;;14.90;55.30;14.00;101698.00;;;;5060855;28;20036;-73
2022/01/29 09:04:24;;;;;;;9.65;7.40;;;14.90;55.40;14.00;101688.00;;;;5049448;28;20509;-73
2022/01/29 09:07:10;;;;;;;10.10;7.72;;;14.90;55.40;14.00;101690.00;;;;5045880;28;20048;-73
2022/01/29 09:09:56;;;;;;;9.68;7.55;;;14.90;55.40;14.00;101678.00;;;;5059011;28;20037;-73
2022/01/29 09:12:42;;;;;;;10.05;7.45;;;14.90;55.50;14.00;101682.00;;;;5062309;28;20508;-74
2022/01/29 09:15:28;;;;;;;9.52;6.82;;;14.90;55.50;14.00;101687.00;;;;5062541;28;20097;-76
2022/01/29 09:18:14;;;;;;;9.32;7.07;;;14.90;55.60;14.00;101679.00;;;;5067111;28;20397;-73
2022/01/29 09:21:00;;;;;;;10.02;7.35;;;14.90;55.60;14.00;101683.00;;;;5061534;28;20029;-78
2022/01/29 09:23:46;;;;;;;10.48;7.43;;;14.90;55.60;14.00;101674.00;;;;5064121;28;20415;-72
2022/01/29 09:26:32;;;;;;;8.98;7.18;;;14.90;55.70;14.00;101679.00;;;;5059910;28;20044;-72
2022/01/29 09:29:18;;;;;;;9.52;6.85;;;14.90;55.70;14.00;101679.00;;;;5061482;28;20036;-72
2022/01/29 09:32:05;;;;;;;9.02;6.57;;;14.90;55.70;14.00;101679.00;;;;5057292;28;20036;-72
2022/01/29 09:34:52;;;;;;;10.02;6.72;;;14.90;55.80;14.00;101671.00;;;;5061171;28;20124;-72
2022/01/29 09:37:38;;;;;;;9.70;6.63;;;14.90;55.70;14.00;101668.00;;;;5059075;28;20380;-73
2022/01/29 09:40:24;;;;;;;8.65;7.05;;;14.90;55.80;14.00;101655.00;;;;5064102;28;20037;-72
2022/01/29 09:43:11;;;;;;;10.02;6.43;;;14.90;55.80;14.00;101650.00;;;;5062391;28;20313;-72
2022/01/29 09:45:57;;;;;;;9.20;6.80;;;14.90;55.90;14.00;101649.00;;;;5058887;28;20036;-73
2022/01/29 09:48:44;;;;;;;8.68;7.10;;;14.90;56.00;14.00;101644.00;;;;5062698;28;20139;-73
2022/01/29 09:51:30;;;;;;;7.78;6.60;;;14.90;56.00;14.00;101645.00;;;;5066389;28;20115;-73
2022/01/29 09:54:17;;;;;;;9.55;6.63;;;14.90;56.00;14.00;101641.00;;;;5051628;28;20044;-72
2022/01/29 09:57:03;;;;;;;8.00;6.53;;;15.00;56.10;14.00;101631.00;;;;5061323;28;20490;-73
2022/01/29 09:59:50;;;;;;;8.63;6.78;;;14.90;56.00;14.10;101631.00;;;;5063269;28;20041;-73
2022/01/29 10:02:36;;;;;;;8.80;6.50;;;14.90;56.00;14.10;101642.00;;;;5049277;28;20029;-73
2022/01/29 10:05:34;;;;;;;7.65;6.45;;;14.90;56.10;14.10;101627.00;;;;5046773;28;20477;-73
2022/01/29 10:08:21;;;;;;;10.48;7.15;;;14.90;56.30;14.10;101623.00;;;;5060611;28;20059;-90
2022/01/29 10:11:27;;;;;;;8.70;6.95;;;14.90;56.10;14.10;101625.00;;;;5035018;28;20040;-73
2022/01/29 10:14:13;;;;;;;8.60;6.57;;;15.00;56.30;14.10;101621.00;;;;5054626;28;20517;-72
2022/01/29 10:16:59;;;;;;;7.82;6.47;;;15.00;56.20;14.10;101616.00;;;;5045681;28;20078;-73
2022/01/29 10:19:45;;;;;;;7.78;5.93;;;15.00;56.20;14.10;101614.00;;;;5063406;28;20404;-72
2022/01/29 10:22:38;;;;;;;7.90;5.90;;;15.00;56.20;14.10;101602.00;;;;5062089;28;20040;-72
2022/01/29 10:25:33;;;;;;;7.78;6.57;;;15.00;56.40;14.10;101608.00;;;;5046499;28;20047;-73
2022/01/29 10:28:20;;;;;;;7.07;5.68;;;15.00;56.50;14.10;101594.00;;;;5063082;28;20094;-72
2022/01/29 10:31:07;;;;;;;6.80;5.97;;;15.00;56.40;14.10;101588.00;;;;5040040;28;20304;-73
2022/01/29 10:33:53;;;;;;;7.20;5.88;;;15.00;56.40;14.10;101578.00;;;;5053508;28;20049;-71
2022/01/29 10:36:39;;;;;;;6.35;5.18;;;15.00;56.50;14.10;101578.00;;;;5048279;28;20032;-71
2022/01/29 10:39:29;;;;;;;7.35;5.55;;;15.00;56.50;14.10;101575.00;;;;5067283;28;20110;-71
2022/01/29 10:42:45;;;;;;;5.93;4.97;;;15.00;56.70;14.10;101573.00;;;;5069231;28;20046;-71
2022/01/29 10:45:35;;;;;;;5.95;4.97;;;15.00;56.80;14.10;101553.00;;;;5055489;28;20123;-73
2022/01/29 10:48:21;;;;;;;4.82;4.30;;;15.00;56.70;14.10;101557.00;;;;5050609;28;20040;-72
2022/01/29 10:51:11;;;;;;;5.97;4.88;;;15.00;56.70;14.10;101552.00;;;;5056711;28;20547;-71
2022/01/29 10:54:18;;;;;;;5.07;4.47;;;15.00;56.80;14.10;101544.00;;;;5043499;28;20063;-71
2022/01/29 10:57:09;;;;;;;5.40;4.30;;;15.00;56.90;14.10;101531.00;;;;5049680;28;20555;-72
2022/01/29 10:59:55;;;;;;;5.20;4.32;;;15.10;56.90;14.10;101530.00;;;;5050732;28;20044;-72
2022/01/29 11:02:42;;;;;;;6.03;4.47;;;15.00;56.80;14.10;101520.00;;;;5069683;28;20402;-72
2022/01/29 11:05:32;;;;;;;6.27;4.07;;;15.00;56.80;14.10;101497.00;;;;5050665;28;20041;-71
2022/01/29 11:08:18;;;;;;;5.13;4.30;;;15.00;56.80;14.10;101503.00;;;;5061415;28;20524;-71
2022/01/29 11:11:05;;;;;;;4.88;3.95;;;15.00;56.80;14.10;101502.00;;;;5060280;28;20040;-72
2022/01/29 11:13:51;;;;;;;5.00;3.50;;;15.00;56.80;14.10;101500.00;;;;5043937;28;20414;-74
2022/01/29 11:16:37;;;;;;;6.30;4.65;;;15.00;56.90;14.10;101477.00;;;;5042881;28;20033;-72
2022/01/29 11:19:24;;;;;;;4.80;4.30;;;15.00;56.90;14.10;101483.00;;;;5057198;28;20032;-71
2022/01/29 11:22:11;;;;;;;4.80;4.30;;;14.90;57.70;14.00;101491.00;;;;5029073;28;20086;-72
2022/01/29 11:25:04;;;;;;;6.57;4.95;;;15.00;57.10;14.10;101493.00;;;;5051823;28;20477;-72
2022/01/29 11:28:14;;;;;;;7.95;5.00;;;15.00;57.20;14.10;101490.00;;;;5043013;28;20097;-72
2022/01/29 11:31:15;;;;;;;7.10;5.30;;;14.90;57.40;14.10;101490.00;;;;5053386;28;20044;-73
2022/01/29 11:34:02;;;;;;;6.97;5.00;;;15.00;57.50;14.10;101493.00;;;;5057954;28;20039;-71
2022/01/29 11:36:48;;;;;;;6.22;5.30;;;15.00;57.30;14.10;101461.00;;;;5067221;28;20440;-72
2022/01/29 11:39:36;;;;;;;7.45;5.55;;;15.00;57.20;14.10;101458.00;;;;5067085;28;20338;-72
2022/01/29 11:42:28;;;;;;;7.93;5.70;;;15.00;57.20;14.10;101446.00;;;;5058918;28;20284;-72
2022/01/29 11:45:54;;;;;;;6.97;5.50;;;15.00;57.30;14.10;101456.00;;;;5062873;28;20041;-72
2022/01/29 11:48:56;;;;;;;9.45;6.20;;;15.00;57.50;14.10;101457.00;;;;5069012;28;20510;-72
2022/01/29 11:51:43;;;;;;;8.30;5.63;;;15.00;57.30;14.10;101462.00;;;;5067694;28;20048;-72
2022/01/29 11:55:06;;;;;;;6.53;5.82;;;15.00;57.20;14.10;101478.00;;;;5064447;28;20372;-72
2022/01/29 11:58:17;;;;;;;6.90;5.93;;;15.00;57.40;14.10;101473.00;;;;5058346;28;20394;-72
2022/01/29 12:01:04;;;;;;;7.07;5.47;;;15.00;57.40;14.10;101455.00;;;;5059659;28;20040;-73
2022/01/29 12:03:51;;;;;;;9.40;6.20;;;15.00;57.20;14.10;101466.00;;;;5050866;28;20064;-74
2022/01/29 12:06:42;;;;;;;7.38;5.15;;;15.10;57.30;14.20;101451.00;;;;5047858;28;20048;-73
2022/01/29 12:09:33;;;;;;;8.00;5.40;;;15.00;57.20;14.20;101455.00;;;;5047044;28;20119;-73
2022/01/29 12:12:27;;;;;;;8.05;5.25;;;15.10;57.20;14.20;101450.00;;;;5058900;28;20048;-73
2022/01/29 12:15:13;;;;;;;9.63;6.03;;;15.10;57.30;14.20;101451.00;;;;5055396;28;20330;-74
2022/01/29 12:18:00;;;;;;;5.88;4.63;;;15.10;57.20;14.20;101441.00;;;;5064408;28;20067;-74